Welcome to Northern Hawkes Bay. New Zealand.
PWS Header
      nz Flag



Hit Counter


W3C Valid W3C Valid logo


    Wairoa

Select any of the Stations below to visit their websites.










Historic Data from Weather Underground
Select the location of interest below. Wairoa is the default. Please have patience, this Data is slow to load in.
Northern Hawkes Bay Historical Data
Daily Summary for May 13, 2017 Units:  Metric    English   Both
« Previous Day
Next Day »
Daily Weekly Monthly Yearly Custom
  High: Low: Average:
Temperature: 15.3 °C 8.3 °C 11.5 °C
Dew Point: 10.2 °C 5.3 °C 7.3 °C
Humidity: 97% 53% 77%
Wind Speed: 31.7km/h 0.0km/h 10.7km/h
Wind Gust: 45.4km/h - -
Wind- - WSW
Pressure: 1024.9 hPa 1018.5 hPa -
Precipitation: 0.0 mm    
Historical Graphs
 
 
Tabular Data for May 13, 2017
Time Temperature Dew Point Pressure Wind Wind Speed Wind Gust Humidity Rainfall Rate (Hourly) solar
00:01 10.8 °C 9.2 °C 1018.5 hPa SSW 24.5 km/h 45.4 km/h 90% 1.0 mm 45 W/m2
00:06 11.1 °C 9.0 °C 1018.8 hPa SSW 23.3 km/h 39.3 km/h 87% 1.0 mm 48 W/m2
00:11 11.6 °C 9.5 °C 1018.8 hPa SW 15.8 km/h 39.3 km/h 87% 1.0 mm 63 W/m2
00:16 11.6 °C 9.0 °C 1018.8 hPa SW 21.9 km/h 39.3 km/h 84% 1.0 mm 56 W/m2
00:21 11.9 °C 8.9 °C 1018.8 hPa SW 27.0 km/h 43.9 km/h 82% 1.0 mm 64 W/m2
00:26 11.9 °C 8.6 °C 1018.8 hPa SW 25.6 km/h 43.9 km/h 80% 1.0 mm 43 W/m2
00:31 12.3 °C 9.1 °C 1018.8 hPa SW 27.0 km/h 43.9 km/h 81% 0.5 mm 19 W/m2
00:37 11.8 °C 8.8 °C 1019.2 hPa SW 21.9 km/h 42.8 km/h 82% 0.5 mm 12 W/m2
00:42 11.8 °C 9.0 °C 1019.2 hPa SW 14.8 km/h 41.7 km/h 83% 0.5 mm 12 W/m2
00:47 11.4 °C 8.8 °C 1019.2 hPa SW 17.2 km/h 41.7 km/h 84% 0.3 mm 9 W/m2
00:52 11.4 °C 8.9 °C 1019.5 hPa SW 18.3 km/h 35.6 km/h 85% 0.3 mm 6 W/m2
00:57 11.1 °C 9.0 °C 1019.5 hPa SSW 14.8 km/h 30.6 km/h 87% 0.0 mm 4 W/m2
01:02 11.0 °C 9.4 °C 1019.2 hPa SW 29.4 km/h 40.4 km/h 90% 0.0 mm 3 W/m2
01:07 10.8 °C 9.4 °C 1019.5 hPa SW 23.3 km/h 40.4 km/h 91% 0.0 mm 1 W/m2
01:12 11.3 °C 9.6 °C 1019.5 hPa SW 24.5 km/h 37.8 km/h 89% 0.0 mm 0 W/m2
01:17 11.1 °C 9.2 °C 1019.5 hPa SW 17.2 km/h 40.4 km/h 88% 0.3 mm 0 W/m2
01:22 10.8 °C 9.6 °C 1019.5 hPa SSW 18.3 km/h 40.4 km/h 92% 0.3 mm 0 W/m2
01:27 10.4 °C 9.3 °C 1019.5 hPa SSW 20.9 km/h 31.7 km/h 93% 0.3 mm 0 W/m2
01:32 10.9 °C 9.8 °C 1019.5 hPa SW 19.5 km/h 35.6 km/h 93% 0.3 mm 0 W/m2
01:37 11.1 °C 9.7 °C 1019.5 hPa SW 29.4 km/h 39.3 km/h 91% 0.3 mm 0 W/m2
01:42 11.1 °C 9.5 °C 1019.9 hPa SSW 29.4 km/h 40.4 km/h 90% 0.3 mm 0 W/m2
01:47 10.3 °C 9.1 °C 1019.9 hPa SW 15.8 km/h 40.4 km/h 92% 0.3 mm 0 W/m2
01:52 11.0 °C 9.6 °C 1019.9 hPa SW 19.5 km/h 40.4 km/h 91% 0.3 mm 0 W/m2
01:57 10.9 °C 9.7 °C 1020.2 hPa SW 24.5 km/h 31.7 km/h 92% 0.3 mm 0 W/m2
02:02 10.8 °C 9.7 °C 1020.2 hPa WSW 7.2 km/h 31.7 km/h 93% 0.3 mm 0 W/m2
02:08 10.7 °C 9.6 °C 1020.5 hPa SW 20.9 km/h 41.7 km/h 93% 0.5 mm 0 W/m2
02:13 10.5 °C 9.6 °C 1020.2 hPa SW 20.9 km/h 41.7 km/h 94% 0.5 mm 0 W/m2
02:18 10.6 °C 9.8 °C 1020.2 hPa SW 25.6 km/h 40.4 km/h 95% 0.5 mm 0 W/m2
02:23 10.6 °C 10.0 °C 1020.5 hPa SW 15.8 km/h 39.3 km/h 96% 0.5 mm 0 W/m2
02:28 10.7 °C 9.9 °C 1020.5 hPa SW 18.3 km/h 36.7 km/h 95% 0.5 mm 0 W/m2
02:33 10.7 °C 9.9 °C 1020.5 hPa SW 20.9 km/h 30.6 km/h 95% 0.5 mm 0 W/m2
02:38 10.8 °C 10.1 °C 1020.5 hPa SW 20.9 km/h 31.7 km/h 95% 0.5 mm 0 W/m2
02:43 10.6 °C 9.7 °C 1020.9 hPa SW 31.7 km/h 42.8 km/h 94% 0.5 mm 0 W/m2
02:48 10.8 °C 9.9 °C 1020.9 hPa SW 18.3 km/h 42.8 km/h 94% 0.5 mm 0 W/m2
02:53 10.7 °C 9.9 °C 1020.9 hPa SW 28.0 km/h 42.8 km/h 95% 0.5 mm 0 W/m2
02:58 10.6 °C 10.0 °C 1020.9 hPa SW 21.9 km/h 37.8 km/h 96% 0.5 mm 0 W/m2
03:03 11.0 °C 10.2 °C 1020.9 hPa SW 8.7 km/h 37.8 km/h 95% 0.3 mm 0 W/m2
03:08 10.6 °C 9.8 °C 1021.2 hPa SW 15.8 km/h 33.1 km/h 95% 0.3 mm 0 W/m2
03:13 10.6 °C 9.8 °C 1020.9 hPa SW 17.2 km/h 34.3 km/h 95% 0.5 mm 0 W/m2
03:18 10.6 °C 10.0 °C 1020.9 hPa SW 25.6 km/h 35.6 km/h 96% 0.3 mm 0 W/m2
03:23 11.0 °C 10.2 °C 1021.2 hPa SW 20.9 km/h 39.3 km/h 95% 0.3 mm 0 W/m2
03:28 10.5 °C 10.1 °C 1020.9 hPa SW 23.3 km/h 39.3 km/h 97% 0.3 mm 0 W/m2
03:33 10.6 °C 10.0 °C 1021.2 hPa SW 19.5 km/h 30.6 km/h 96% 0.3 mm 0 W/m2
03:38 10.6 °C 9.8 °C 1021.2 hPa SW 30.6 km/h 39.3 km/h 95% 0.5 mm 0 W/m2
03:43 10.3 °C 9.6 °C 1021.2 hPa SW 18.3 km/h 39.3 km/h 95% 0.5 mm 0 W/m2
03:48 10.6 °C 9.8 °C 1021.2 hPa SSW 14.8 km/h 39.3 km/h 95% 0.5 mm 0 W/m2
03:53 10.7 °C 9.9 °C 1021.2 hPa SW 19.5 km/h 40.4 km/h 95% 0.5 mm 0 W/m2
03:58 10.8 °C 9.9 °C 1021.2 hPa SSW 18.3 km/h 40.4 km/h 94% 0.5 mm 0 W/m2
04:03 10.7 °C 9.4 °C 1021.6 hPa SSW 29.4 km/h 35.6 km/h 92% 0.5 mm 0 W/m2
04:08 10.8 °C 9.6 °C 1021.6 hPa SW 23.3 km/h 35.6 km/h 92% 1.0 mm 0 W/m2
04:13 10.6 °C 9.5 °C 1021.6 hPa SW 18.3 km/h 34.3 km/h 93% 0.5 mm 0 W/m2
04:18 10.7 °C 9.6 °C 1021.6 hPa SW 21.9 km/h 40.4 km/h 93% 0.5 mm 0 W/m2
04:23 10.3 °C 9.2 °C 1021.6 hPa SW 23.3 km/h 40.4 km/h 93% 0.5 mm 0 W/m2
04:28 10.7 °C 9.6 °C 1021.6 hPa SW 15.8 km/h 34.3 km/h 93% 0.5 mm 0 W/m2
04:33 10.9 °C 9.5 °C 1021.6 hPa SW 23.3 km/h 35.6 km/h 91% 0.5 mm 0 W/m2
04:38 11.1 °C 9.0 °C 1021.6 hPa SW 20.9 km/h 35.6 km/h 87% 0.5 mm 0 W/m2
04:43 11.1 °C 8.7 °C 1021.6 hPa SW 27.0 km/h 35.6 km/h 85% 0.5 mm 0 W/m2
04:48 11.3 °C 8.7 °C 1021.6 hPa SW 28.0 km/h 36.7 km/h 84% 0.5 mm 0 W/m2
04:53 11.3 °C 8.9 °C 1021.9 hPa SW 17.2 km/h 36.7 km/h 85% 0.5 mm 0 W/m2
04:58 11.2 °C 8.8 °C 1021.6 hPa SW 27.0 km/h 36.7 km/h 85% 0.5 mm 0 W/m2
05:03 11.3 °C 8.9 °C 1021.9 hPa SW 12.2 km/h 33.1 km/h 85% 0.5 mm 0 W/m2
05:08 11.2 °C 8.8 °C 1021.9 hPa SW 19.5 km/h 35.6 km/h 85% 0.3 mm 0 W/m2
05:13 11.3 °C 8.5 °C 1021.9 hPa SW 19.5 km/h 39.3 km/h 83% 0.3 mm 0 W/m2
05:18 11.3 °C 8.5 °C 1021.9 hPa SW 24.5 km/h 43.9 km/h 83% 0.3 mm 0 W/m2
05:23 11.3 °C 8.5 °C 1021.9 hPa SW 30.6 km/h 43.9 km/h 83% 0.3 mm 0 W/m2
05:28 11.3 °C 8.5 °C 1021.9 hPa SSW 23.3 km/h 39.3 km/h 83% 0.3 mm 0 W/m2
05:33 11.3 °C 8.7 °C 1021.9 hPa SW 13.4 km/h 36.7 km/h 84% 0.3 mm 0 W/m2
05:38 11.2 °C 8.6 °C 1021.9 hPa SW 17.2 km/h 31.7 km/h 84% 0.0 mm 0 W/m2
05:43 11.2 °C 8.6 °C 1022.2 hPa WSW 23.3 km/h 42.8 km/h 84% 0.0 mm 0 W/m2
05:48 11.2 °C 8.4 °C 1021.9 hPa SW 19.5 km/h 42.8 km/h 83% 0.0 mm 0 W/m2
05:53 11.2 °C 8.4 °C 1021.9 hPa SW 19.5 km/h 35.6 km/h 83% 0.0 mm 0 W/m2
05:58 11.2 °C 8.4 °C 1022.2 hPa SW 20.9 km/h 35.6 km/h 83% 0.0 mm 0 W/m2
06:03 11.2 °C 8.4 °C 1021.9 hPa SW 24.5 km/h 34.3 km/h 83% 0.0 mm 0 W/m2
06:08 11.1 °C 8.3 °C 1022.2 hPa SW 17.2 km/h 31.7 km/h 83% 0.0 mm 0 W/m2
06:13 11.1 °C 8.3 °C 1022.2 hPa SW 20.9 km/h 37.8 km/h 83% 0.0 mm 0 W/m2
06:18 11.1 °C 8.3 °C 1022.2 hPa SW 17.2 km/h 37.8 km/h 83% 0.0 mm 0 W/m2
06:23 11.2 °C 8.4 °C 1022.2 hPa SW 14.8 km/h 37.8 km/h 83% 0.0 mm 0 W/m2
06:28 11.2 °C 8.2 °C 1022.2 hPa SW 13.4 km/h 36.7 km/h 82% 0.0 mm 0 W/m2
06:33 11.2 °C 8.2 °C 1022.2 hPa SW 24.5 km/h 36.7 km/h 82% 0.0 mm 0 W/m2
06:38 11.2 °C 8.2 °C 1022.2 hPa SW 20.9 km/h 35.6 km/h 82% 0.0 mm 0 W/m2
06:43 11.2 °C 8.2 °C 1022.2 hPa West 23.3 km/h 34.3 km/h 82% 0.0 mm 0 W/m2
06:48 11.1 °C 8.2 °C 1022.2 hPa West 13.4 km/h 34.3 km/h 82% 0.0 mm 0 W/m2
06:53 11.0 °C 8.1 °C 1022.2 hPa WSW 18.3 km/h 33.1 km/h 82% 0.0 mm 0 W/m2
06:54 11.0 °C 8.1 °C 1022.2 hPa WSW 15.8 km/h 33.1 km/h 82% 0.0 mm 0 W/m2
07:14 11.0 °C 8.1 °C 1022.2 hPa SW 17.2 km/h 27.0 km/h 82% 0.0 mm 0 W/m2
07:19 11.1 °C 8.2 °C 1022.2 hPa SW 18.3 km/h 34.3 km/h 82% 0.0 mm 0 W/m2
07:24 11.2 °C 8.2 °C 1022.2 hPa WSW 14.8 km/h 39.3 km/h 82% 0.0 mm 0 W/m2
07:29 11.0 °C 7.9 °C 1022.2 hPa WSW 24.5 km/h 39.3 km/h 81% 0.0 mm 0 W/m2
07:35 11.0 °C 7.7 °C 1022.2 hPa WSW 14.8 km/h 34.3 km/h 80% 0.0 mm 0 W/m2
07:40 10.9 °C 8.1 °C 1022.2 hPa West 17.2 km/h 35.6 km/h 83% 0.0 mm 0 W/m2
07:45 11.0 °C 8.1 °C 1022.6 hPa WSW 17.2 km/h 35.6 km/h 82% 0.0 mm 0 W/m2
07:50 10.9 °C 8.1 °C 1022.2 hPa WSW 18.3 km/h 33.1 km/h 83% 0.0 mm 0 W/m2
07:55 10.9 °C 8.1 °C 1022.6 hPa WSW 12.2 km/h 33.1 km/h 83% 0.0 mm 0 W/m2
08:00 10.9 °C 8.1 °C 1022.2 hPa SW 14.8 km/h 31.7 km/h 83% 0.0 mm 0 W/m2
08:06 10.9 °C 8.1 °C 1022.6 hPa WSW 18.3 km/h 31.7 km/h 83% 0.0 mm 0 W/m2
08:11 10.9 °C 7.9 °C 1022.6 hPa WSW 12.2 km/h 30.6 km/h 82% 0.0 mm 0 W/m2
08:16 10.9 °C 8.1 °C 1022.6 hPa SW 20.9 km/h 37.8 km/h 83% 0.0 mm 0 W/m2
08:21 10.9 °C 7.9 °C 1022.2 hPa SW 14.8 km/h 37.8 km/h 82% 0.0 mm 0 W/m2
08:26 10.9 °C 8.1 °C 1022.6 hPa WSW 19.5 km/h 35.6 km/h 83% 0.0 mm 0 W/m2
08:31 10.9 °C 8.1 °C 1022.6 hPa West 28.0 km/h 34.3 km/h 83% 0.0 mm 0 W/m2
08:36 10.8 °C 8.1 °C 1022.6 hPa WSW 14.8 km/h 34.3 km/h 83% 0.0 mm 0 W/m2
08:41 10.8 °C 8.1 °C 1022.6 hPa WSW 21.9 km/h 34.3 km/h 83% 0.0 mm 0 W/m2
08:46 10.8 °C 8.1 °C 1022.6 hPa WSW 14.8 km/h 34.3 km/h 83% 0.0 mm 0 W/m2
08:51 10.7 °C 7.9 °C 1022.6 hPa SW 23.3 km/h 35.6 km/h 83% 0.0 mm 0 W/m2
08:56 10.7 °C 7.9 °C 1022.2 hPa WSW 15.8 km/h 35.6 km/h 83% 0.0 mm 0 W/m2
09:01 10.7 °C 7.9 °C 1022.2 hPa WSW 14.8 km/h 30.6 km/h 83% 0.0 mm 0 W/m2
09:06 10.7 °C 7.9 °C 1022.6 hPa WSW 13.4 km/h 31.7 km/h 83% 0.0 mm 0 W/m2
09:11 10.7 °C 7.9 °C 1022.6 hPa WSW 24.5 km/h 40.4 km/h 83% 0.0 mm 0 W/m2
09:16 10.8 °C 8.1 °C 1022.6 hPa WSW 20.9 km/h 40.4 km/h 83% 0.0 mm 0 W/m2
09:21 10.8 °C 8.1 °C 1022.6 hPa WSW 13.4 km/h 29.4 km/h 83% 0.0 mm 0 W/m2
09:26 10.8 °C 7.8 °C 1022.6 hPa WSW 14.8 km/h 29.4 km/h 82% 0.0 mm 0 W/m2
09:31 10.9 °C 7.9 °C 1022.6 hPa SW 19.5 km/h 29.4 km/h 82% 0.0 mm 0 W/m2
09:36 10.9 °C 7.9 °C 1022.6 hPa WSW 23.3 km/h 30.6 km/h 82% 0.0 mm 0 W/m2
09:41 11.0 °C 7.7 °C 1022.6 hPa WSW 17.2 km/h 30.6 km/h 80% 0.0 mm 0 W/m2
09:46 11.0 °C 7.5 °C 1022.2 hPa SW 18.3 km/h 30.6 km/h 79% 0.0 mm 0 W/m2
09:51 11.0 °C 7.7 °C 1022.6 hPa SW 17.2 km/h 33.1 km/h 80% 0.0 mm 0 W/m2
09:56 10.9 °C 8.1 °C 1022.2 hPa WSW 14.8 km/h 33.1 km/h 83% 0.0 mm 0 W/m2
10:01 10.7 °C 7.9 °C 1022.2 hPa WSW 18.3 km/h 28.0 km/h 83% 0.0 mm 0 W/m2
10:06 10.6 °C 7.8 °C 1022.6 hPa SW 11.1 km/h 28.0 km/h 83% 0.0 mm 0 W/m2
10:11 10.5 °C 7.7 °C 1022.6 hPa WSW 6.1 km/h 28.0 km/h 83% 0.0 mm 0 W/m2
10:16 10.6 °C 7.8 °C 1022.6 hPa WSW 13.4 km/h 27.0 km/h 83% 0.0 mm 0 W/m2
10:21 10.6 °C 7.8 °C 1022.6 hPa WSW 9.7 km/h 27.0 km/h 83% 0.0 mm 0 W/m2
10:26 10.5 °C 7.7 °C 1022.6 hPa WSW 6.1 km/h 19.5 km/h 83% 0.0 mm 0 W/m2
10:31 10.5 °C 7.7 °C 1022.6 hPa West 2.6 km/h 18.3 km/h 83% 0.0 mm 0 W/m2
10:36 10.6 °C 7.7 °C 1022.6 hPa West 12.2 km/h 21.9 km/h 82% 0.0 mm 0 W/m2
10:40 10.8 °C 7.5 °C 1022.2 hPa WSW 11.1 km/h 25.6 km/h 80% 0.0 mm 0 W/m2
10:46 10.9 °C 7.2 °C 1022.2 hPa WSW 24.5 km/h 30.6 km/h 78% 0.0 mm 0 W/m2
10:51 11.0 °C 6.9 °C 1022.6 hPa WSW 14.8 km/h 31.7 km/h 76% 0.0 mm 0 W/m2
10:56 11.0 °C 6.9 °C 1022.6 hPa WSW 13.4 km/h 31.7 km/h 76% 0.0 mm 0 W/m2
11:01 11.0 °C 6.9 °C 1022.6 hPa WSW 15.8 km/h 29.4 km/h 76% 0.0 mm 0 W/m2
11:06 11.0 °C 6.9 °C 1022.2 hPa WSW 8.7 km/h 29.4 km/h 76% 0.0 mm 0 W/m2
11:12 10.9 °C 7.1 °C 1022.6 hPa West 5.0 km/h 25.6 km/h 77% 0.0 mm 0 W/m2
11:17 10.9 °C 7.1 °C 1022.6 hPa WSW 14.8 km/h 23.3 km/h 77% 0.0 mm 0 W/m2
11:21 10.9 °C 7.1 °C 1022.6 hPa WSW 11.1 km/h 23.3 km/h 77% 0.0 mm 0 W/m2
11:27 10.8 °C 7.1 °C 1022.6 hPa WSW 17.2 km/h 23.3 km/h 78% 0.0 mm 0 W/m2
11:32 10.7 °C 7.0 °C 1022.6 hPa WSW 6.1 km/h 23.3 km/h 78% 0.0 mm 0 W/m2
11:37 10.6 °C 7.5 °C 1022.6 hPa Calm   23.3 km/h 81% 0.0 mm 0 W/m2
11:42 10.6 °C 7.5 °C 1022.6 hPa WSW 7.2 km/h 13.4 km/h 81% 0.0 mm 0 W/m2
11:47 10.5 °C 7.4 °C 1022.2 hPa Calm   13.4 km/h 81% 0.0 mm 0 W/m2
11:52 10.4 °C 7.3 °C 1022.6 hPa Calm   11.1 km/h 81% 0.0 mm 0 W/m2
11:57 10.2 °C 6.9 °C 1022.2 hPa Calm   9.7 km/h 80% 0.0 mm 0 W/m2
12:02 10.1 °C 6.6 °C 1022.2 hPa Calm   9.7 km/h 79% 0.0 mm 0 W/m2
12:06 10.1 °C 6.6 °C 1022.6 hPa Calm   6.1 km/h 79% 0.0 mm 0 W/m2
12:12 10.0 °C 6.6 °C 1022.2 hPa Calm   6.1 km/h 79% 0.0 mm 0 W/m2
12:13 10.0 °C 6.6 °C 1022.2 hPa Calm   6.1 km/h 79% 0.0 mm 0 W/m2
12:18 9.9 °C 6.6 °C 1022.2 hPa Calm   2.6 km/h 80% 0.0 mm 0 W/m2
12:23 9.8 °C 6.3 °C 1022.2 hPa Calm   5.0 km/h 79% 0.0 mm 0 W/m2
12:28 9.8 °C 6.3 °C 1022.6 hPa Calm   5.0 km/h 79% 0.0 mm 0 W/m2
12:33 9.8 °C 6.2 °C 1022.2 hPa Calm   9.7 km/h 78% 0.0 mm 0 W/m2
12:38 9.9 °C 6.1 °C 1022.2 hPa WNW 1.1 km/h 9.7 km/h 77% 0.0 mm 0 W/m2
12:43 9.9 °C 6.1 °C 1022.6 hPa Calm   6.1 km/h 77% 0.0 mm 0 W/m2
12:47 9.8 °C 5.9 °C 1022.6 hPa Calm   6.1 km/h 77% 0.0 mm 0 W/m2
12:52 9.7 °C 5.9 °C 1022.6 hPa Calm   2.6 km/h 77% 0.0 mm 0 W/m2
12:58 9.7 °C 5.9 °C 1022.2 hPa Calm   7.2 km/h 77% 0.0 mm 0 W/m2
13:02 9.7 °C 5.9 °C 1022.6 hPa Calm   8.7 km/h 77% 0.0 mm 0 W/m2
13:08 9.7 °C 5.9 °C 1022.6 hPa Calm   8.7 km/h 77% 0.0 mm 0 W/m2
13:13 9.7 °C 6.1 °C 1022.6 hPa Calm   7.2 km/h 78% 0.0 mm 0 W/m2
13:18 9.8 °C 6.2 °C 1022.6 hPa Calm   6.1 km/h 78% 0.0 mm 0 W/m2
13:23 9.7 °C 5.9 °C 1022.6 hPa Calm   7.2 km/h 77% 0.0 mm 0 W/m2
13:28 9.7 °C 5.9 °C 1022.2 hPa Calm   8.7 km/h 77% 0.0 mm 0 W/m2
13:33 9.7 °C 5.9 °C 1022.6 hPa WSW 1.1 km/h 8.7 km/h 77% 0.0 mm 0 W/m2
13:37 9.7 °C 5.9 °C 1022.6 hPa Calm   7.2 km/h 77% 0.0 mm 0 W/m2
13:42 9.7 °C 5.9 °C 1022.2 hPa Calm   6.1 km/h 77% 0.0 mm 0 W/m2
13:48 9.7 °C 5.9 °C 1022.2 hPa Calm   6.1 km/h 77% 0.0 mm 0 W/m2
13:53 9.8 °C 5.9 °C 1022.6 hPa West 5.0 km/h 11.1 km/h 77% 0.0 mm 0 W/m2
13:57 9.9 °C 5.9 °C 1022.6 hPa Calm   11.1 km/h 76% 0.0 mm 0 W/m2
14:02 9.9 °C 5.9 °C 1022.6 hPa Calm   11.1 km/h 76% 0.0 mm 0 W/m2
14:08 9.7 °C 5.7 °C 1022.6 hPa Calm   3.5 km/h 76% 0.0 mm 0 W/m2
14:13 9.5 °C 5.7 °C 1022.6 hPa Calm     77% 0.0 mm 0 W/m2
14:17 9.4 °C 5.6 °C 1022.6 hPa Calm     77% 0.0 mm 0 W/m2
14:23 9.3 °C 5.5 °C 1022.6 hPa Calm     77% 0.0 mm 0 W/m2
14:27 9.1 °C 5.4 °C 1022.6 hPa Calm     78% 0.0 mm 0 W/m2
14:32 9.0 °C 5.6 °C 1022.9 hPa Calm     79% 0.0 mm 0 W/m2
14:38 8.9 °C 5.8 °C 1022.6 hPa Calm     81% 0.0 mm 0 W/m2
14:43 8.9 °C 5.8 °C 1022.9 hPa Calm     81% 0.0 mm 0 W/m2
14:47 8.9 °C 5.8 °C 1022.9 hPa Calm     81% 0.0 mm 0 W/m2
14:52 8.8 °C 5.9 °C 1022.9 hPa Calm     82% 0.0 mm 0 W/m2
14:58 8.8 °C 5.9 °C 1022.9 hPa Calm     82% 0.0 mm 0 W/m2
15:00 8.8 °C 5.9 °C 1022.9 hPa Calm     82% 0.0 mm 0 W/m2
15:05 8.7 °C 5.8 °C 1023.2 hPa Calm     82% 0.0 mm 2 W/m2
15:10 8.7 °C 5.8 °C 1022.9 hPa Calm     82% 0.0 mm 4 W/m2
15:16 8.7 °C 6.0 °C 1023.2 hPa Calm     83% 0.0 mm 6 W/m2
15:21 8.6 °C 5.9 °C 1023.2 hPa Calm     83% 0.0 mm 8 W/m2
15:25 8.5 °C 5.8 °C 1023.2 hPa Calm   2.6 km/h 83% 0.0 mm 12 W/m2
15:30 8.4 °C 5.7 °C 1023.2 hPa Calm   5.0 km/h 83% 0.0 mm 15 W/m2
15:36 8.3 °C 5.6 °C 1023.2 hPa Calm   5.0 km/h 83% 0.0 mm 18 W/m2
15:41 8.4 °C 5.7 °C 1023.2 hPa Calm   5.0 km/h 83% 0.0 mm 21 W/m2
15:45 8.5 °C 5.8 °C 1023.2 hPa Calm   5.0 km/h 83% 0.0 mm 26 W/m2
15:50 8.5 °C 5.8 °C 1023.6 hPa Calm   6.1 km/h 83% 0.0 mm 33 W/m2
15:55 8.6 °C 5.9 °C 1023.6 hPa NW 3.5 km/h 6.1 km/h 83% 0.0 mm 42 W/m2
16:00 8.8 °C 5.9 °C 1023.6 hPa NW 1.1 km/h 8.7 km/h 82% 0.0 mm 50 W/m2
16:06 9.0 °C 5.7 °C 1023.6 hPa Calm   8.7 km/h 80% 0.0 mm 51 W/m2
16:11 9.1 °C 5.7 °C 1023.6 hPa NNW 3.5 km/h 7.2 km/h 79% 0.0 mm 56 W/m2
16:15 9.2 °C 5.6 °C 1023.6 hPa NNW 1.1 km/h 8.7 km/h 78% 0.0 mm 66 W/m2
16:20 9.7 °C 6.2 °C 1023.9 hPa Calm   8.7 km/h 79% 0.0 mm 180 W/m2
16:23 10.0 °C 6.2 °C 1023.9 hPa North 1.1 km/h 8.7 km/h 77% 0.0 mm 190 W/m2
16:27 10.7 °C 6.4 °C 1023.6 hPa North 2.6 km/h 7.2 km/h 75% 0.0 mm 196 W/m2
16:32 10.8 °C 6.2 °C 1023.9 hPa North 3.5 km/h 8.7 km/h 73% 0.0 mm 188 W/m2
16:38 10.8 °C 6.2 °C 1023.9 hPa NNW 1.1 km/h 8.7 km/h 73% 0.0 mm 101 W/m2
16:43 10.5 °C 5.9 °C 1023.9 hPa Calm   9.7 km/h 73% 0.0 mm 106 W/m2
16:47 10.4 °C 5.8 °C 1023.9 hPa Calm   9.7 km/h 73% 0.0 mm 93 W/m2
16:52 10.7 °C 6.3 °C 1024.3 hPa Calm   2.6 km/h 74% 0.0 mm 254 W/m2
16:57 11.3 °C 6.4 °C 1024.3 hPa Calm   2.6 km/h 72% 0.0 mm 269 W/m2
17:02 11.7 °C 6.8 °C 1024.3 hPa Calm   2.6 km/h 72% 0.0 mm 282 W/m2
17:07 11.6 °C 6.1 °C 1024.3 hPa NW 2.6 km/h 9.7 km/h 69% 0.0 mm 292 W/m2
17:13 11.8 °C 6.5 °C 1024.3 hPa NW 5.0 km/h 9.7 km/h 70% 0.0 mm 288 W/m2
17:17 11.9 °C 6.4 °C 1024.3 hPa NW 1.1 km/h 8.7 km/h 69% 0.0 mm 240 W/m2
17:22 11.8 °C 6.3 °C 1024.3 hPa Calm   8.7 km/h 69% 0.0 mm 147 W/m2
17:27 11.5 °C 6.2 °C 1024.3 hPa Calm   7.2 km/h 70% 0.0 mm 160 W/m2
17:32 11.5 °C 6.2 °C 1024.3 hPa Calm   3.5 km/h 70% 0.0 mm 155 W/m2
17:37 11.6 °C 6.3 °C 1024.3 hPa Calm   2.6 km/h 70% 0.0 mm 178 W/m2
17:42 11.8 °C 6.3 °C 1024.3 hPa Calm   6.1 km/h 69% 0.0 mm 180 W/m2
17:47 12.1 °C 6.8 °C 1024.3 hPa Calm   6.1 km/h 70% 0.0 mm 191 W/m2
17:52 12.6 °C 6.8 °C 1024.3 hPa Calm   5.0 km/h 68% 0.0 mm 193 W/m2
17:58 12.7 °C 6.7 °C 1024.3 hPa Calm     67% 0.0 mm 182 W/m2
18:02 12.9 °C 6.7 °C 1024.6 hPa Calm     66% 0.0 mm 190 W/m2
18:07 13.0 °C 7.0 °C 1024.6 hPa West 1.1 km/h 6.1 km/h 67% 0.0 mm 181 W/m2
18:12 12.9 °C 6.7 °C 1024.6 hPa Calm   6.1 km/h 66% 0.0 mm 183 W/m2
18:17 12.6 °C 6.2 °C 1024.6 hPa Calm   6.1 km/h 65% 0.0 mm 189 W/m2
18:22 12.5 °C 6.3 °C 1024.6 hPa Calm     66% 0.0 mm 191 W/m2
18:28 12.8 °C 6.6 °C 1024.6 hPa Calm     66% 0.0 mm 182 W/m2
18:32 12.7 °C 6.5 °C 1024.6 hPa Calm     66% 0.0 mm 189 W/m2
18:37 12.6 °C 6.4 °C 1024.6 hPa Calm     66% 0.0 mm 186 W/m2
18:42 12.5 °C 6.3 °C 1024.6 hPa SW 8.7 km/h 17.2 km/h 66% 0.0 mm 186 W/m2
18:47 12.4 °C 6.0 °C 1024.6 hPa Calm   17.2 km/h 65% 0.0 mm 179 W/m2
18:52 12.4 °C 6.2 °C 1024.6 hPa Calm   13.4 km/h 66% 0.0 mm 137 W/m2
18:57 12.4 °C 6.0 °C 1024.6 hPa Calm   11.1 km/h 65% 0.0 mm 159 W/m2
19:02 12.5 °C 6.1 °C 1024.6 hPa West 3.5 km/h 12.2 km/h 65% 0.0 mm 167 W/m2
19:07 12.5 °C 5.9 °C 1024.6 hPa Calm   14.8 km/h 64% 0.0 mm 143 W/m2
19:12 12.9 °C 6.3 °C 1024.6 hPa WNW 1.1 km/h 14.8 km/h 64% 0.0 mm 211 W/m2
19:17 12.9 °C 6.1 °C 1024.6 hPa WSW 1.1 km/h 15.8 km/h 63% 0.0 mm 236 W/m2
19:22 13.2 °C 6.1 °C 1024.9 hPa WSW 6.1 km/h 18.3 km/h 62% 0.0 mm 378 W/m2
19:27 13.5 °C 6.1 °C 1024.6 hPa SW 9.7 km/h 23.3 km/h 61% 0.0 mm 378 W/m2
19:32 13.7 °C 6.3 °C 1024.9 hPa SW 6.1 km/h 24.5 km/h 61% 0.0 mm 375 W/m2
19:37 13.7 °C 6.1 °C 1024.6 hPa West 3.5 km/h 24.5 km/h 60% 0.0 mm 389 W/m2
19:42 14.0 °C 6.6 °C 1024.9 hPa Calm   19.5 km/h 61% 0.0 mm 379 W/m2
19:47 14.4 °C 6.5 °C 1024.6 hPa WSW 13.4 km/h 20.9 km/h 59% 0.0 mm 383 W/m2
19:52 14.1 °C 6.2 °C 1024.6 hPa WSW 7.2 km/h 20.9 km/h 59% 0.0 mm 374 W/m2
19:57 14.2 °C 6.6 °C 1024.9 hPa WSW 11.1 km/h 20.9 km/h 60% 0.0 mm 368 W/m2
20:02 14.1 °C 5.7 °C 1024.6 hPa SW 14.8 km/h 21.9 km/h 57% 0.0 mm 358 W/m2
20:08 14.0 °C 6.4 °C 1024.6 hPa WSW 8.7 km/h 23.3 km/h 60% 0.0 mm 349 W/m2
20:13 14.2 °C 6.1 °C 1024.3 hPa WSW 13.4 km/h 24.5 km/h 58% 0.0 mm 341 W/m2
20:18 14.0 °C 5.9 °C 1024.6 hPa SW 13.4 km/h 24.5 km/h 58% 0.0 mm 330 W/m2
20:23 14.3 °C 5.9 °C 1024.6 hPa WSW 20.9 km/h 28.0 km/h 57% 0.0 mm 316 W/m2
20:28 14.1 °C 5.7 °C 1024.3 hPa SW 11.1 km/h 28.0 km/h 57% 0.0 mm 298 W/m2
20:33 14.6 °C 6.2 °C 1024.3 hPa SW 15.8 km/h 28.0 km/h 57% 0.0 mm 275 W/m2
20:38 14.2 °C 5.8 °C 1024.3 hPa WSW 12.2 km/h 21.9 km/h 57% 0.0 mm 244 W/m2
20:43 14.4 °C 6.0 °C 1024.3 hPa WSW 7.2 km/h 21.9 km/h 57% 0.0 mm 222 W/m2
20:48 14.2 °C 5.6 °C 1024.3 hPa SW 14.8 km/h 21.9 km/h 56% 0.0 mm 201 W/m2
20:53 14.3 °C 6.2 °C 1024.3 hPa WSW 9.7 km/h 23.3 km/h 58% 0.0 mm 167 W/m2
20:58 14.4 °C 6.5 °C 1024.3 hPa WSW 11.1 km/h 23.3 km/h 59% 0.0 mm 136 W/m2
21:03 14.3 °C 5.9 °C 1023.9 hPa SW 11.1 km/h 23.3 km/h 57% 0.0 mm 120 W/m2
21:08 14.4 °C 5.7 °C 1024.3 hPa SW 9.7 km/h 23.3 km/h 56% 0.0 mm 110 W/m2
21:13 14.5 °C 6.3 °C 1023.9 hPa SW 12.2 km/h 20.9 km/h 58% 0.0 mm 107 W/m2
21:18 14.6 °C 5.9 °C 1023.9 hPa SW 6.1 km/h 19.5 km/h 56% 0.0 mm 98 W/m2
21:23 14.6 °C 5.7 °C 1024.3 hPa WSW 3.5 km/h 19.5 km/h 55% 0.0 mm 78 W/m2
21:28 14.7 °C 5.5 °C 1023.9 hPa WSW 12.2 km/h 21.9 km/h 54% 0.0 mm 65 W/m2
21:33 14.4 °C 5.5 °C 1023.9 hPa SW 9.7 km/h 21.9 km/h 55% 0.0 mm 63 W/m2
21:38 14.3 °C 5.4 °C 1023.9 hPa SW 12.2 km/h 19.5 km/h 55% 0.0 mm 60 W/m2
21:43 14.6 °C 5.7 °C 1023.9 hPa SW 6.1 km/h 19.5 km/h 55% 0.0 mm 59 W/m2
21:48 14.5 °C 5.3 °C 1023.9 hPa SW 7.2 km/h 19.5 km/h 54% 0.0 mm 60 W/m2
21:53 14.8 °C 5.8 °C 1023.9 hPa SW 5.0 km/h 15.8 km/h 55% 0.0 mm 61 W/m2
21:58 14.7 °C 5.8 °C 1023.9 hPa SSW 8.7 km/h 15.8 km/h 55% 0.0 mm 63 W/m2
22:03 15.2 °C 6.2 °C 1023.9 hPa SW 7.2 km/h 14.8 km/h 55% 0.0 mm 64 W/m2
22:08 14.8 °C 5.3 °C 1023.6 hPa SW 7.2 km/h 17.2 km/h 53% 0.0 mm 68 W/m2
22:13 15.1 °C 5.6 °C 1023.9 hPa SW 9.7 km/h 17.2 km/h 53% 0.0 mm 69 W/m2
22:19 15.2 °C 5.9 °C 1023.6 hPa SW 7.2 km/h 17.2 km/h 54% 0.0 mm 72 W/m2
22:25 14.8 °C 5.6 °C 1023.9 hPa SW 5.0 km/h 20.9 km/h 54% 0.0 mm 90 W/m2
22:30 14.8 °C 5.8 °C 1023.6 hPa SW 11.1 km/h 20.9 km/h 55% 0.0 mm 132 W/m2
22:35 14.6 °C 5.9 °C 1023.9 hPa SW 11.1 km/h 18.3 km/h 56% 0.0 mm 183 W/m2
22:40 14.9 °C 6.2 °C 1023.6 hPa SW 13.4 km/h 18.3 km/h 56% 0.0 mm 190 W/m2
22:45 14.6 °C 5.7 °C 1023.6 hPa SW 9.7 km/h 18.3 km/h 55% 0.0 mm 165 W/m2
22:50 14.8 °C 6.6 °C 1023.6 hPa SW 7.2 km/h 18.3 km/h 58% 0.0 mm 192 W/m2
22:55 15.2 °C 6.5 °C 1023.9 hPa SW 2.6 km/h 15.8 km/h 56% 0.0 mm 209 W/m2
23:00 15.2 °C 5.9 °C 1023.9 hPa SW 6.1 km/h 14.8 km/h 54% 0.0 mm 204 W/m2
23:05 15.1 °C 6.1 °C 1023.9 hPa SW 5.0 km/h 14.8 km/h 55% 0.0 mm 199 W/m2
23:10 15.3 °C 6.3 °C 1023.6 hPa SW 3.5 km/h 12.2 km/h 55% 0.0 mm 193 W/m2
23:15 15.2 °C 5.9 °C 1023.9 hPa WSW 3.5 km/h 11.1 km/h 54% 0.0 mm 185 W/m2
23:20 15.1 °C 6.1 °C 1023.6 hPa WSW 2.6 km/h 11.1 km/h 55% 0.0 mm 176 W/m2
23:25 15.1 °C 6.1 °C 1023.9 hPa Calm   11.1 km/h 55% 0.0 mm 163 W/m2
23:30 15.3 °C 6.6 °C 1023.9 hPa WSW 3.5 km/h 11.1 km/h 56% 0.0 mm 153 W/m2
23:35 15.1 °C 6.1 °C 1023.9 hPa Calm   7.2 km/h 55% 0.0 mm 143 W/m2
23:40 14.9 °C 6.7 °C 1023.9 hPa West 2.6 km/h 8.7 km/h 58% 0.0 mm 129 W/m2
23:45 14.9 °C 6.7 °C 1023.9 hPa West 5.0 km/h 8.7 km/h 58% 0.0 mm 117 W/m2
23:50 15.0 °C 6.8 °C 1023.9 hPa West 1.1 km/h 8.7 km/h 58% 0.0 mm 102 W/m2
23:55 15.1 °C 6.9 °C 1023.9 hPa Calm   8.7 km/h 58% 0.0 mm 88 W/m2
Northern Hawkes Bay. New Zealand Historic Data
Compliments of Weather Underground - 2 mb